Terminal Aerodrome Forecast
Issued by NWS

Home | Current Version | Previous Version | Text Only | Print | Product List | Glossary Off
Versions: 1 2 3 4 5 6 7 8 9 10 11 12 13 14 15 16

000
FTUS43 KGRB 150520
TAFRHI
TAF
KRHI 150520Z 1506/1606 25008KT P6SM SCT015 WS010/24035KT
      TEMPO 1510/1514 5SM BR BKN012
     FM151400 26007KT 3SM BR BKN015 WS010/28030KT
     FM151600 29008G15KT P6SM BKN012
     FM152000 33008G15KT P6SM BKN020
     FM160000 32006KT P6SM BKN035=

USA.gov is the U.S. government's official web portal to all federal, state and local government web resources and services.